createdAt,value
2018-05-14T00:00:00.222Z,12.60
2018-05-14T00:02:27.920Z,12.70
2018-05-14T00:04:56.164Z,12.80
2018-05-14T00:07:23.659Z,12.80
2018-05-14T00:09:52.193Z,12.80
2018-05-14T00:12:19.689Z,12.90
2018-05-14T00:14:47.987Z,12.80
2018-05-14T00:17:16.288Z,12.80
2018-05-14T00:19:43.816Z,12.80
2018-05-14T00:22:12.095Z,12.60
2018-05-14T00:24:40.347Z,12.60
2018-05-14T00:27:09.340Z,12.70
2018-05-14T00:29:36.920Z,12.70
2018-05-14T00:32:05.164Z,12.80
2018-05-14T00:34:32.639Z,12.80
2018-05-14T00:37:00.131Z,12.80
2018-05-14T00:39:27.672Z,12.80
2018-05-14T00:41:55.933Z,12.60
2018-05-14T00:44:23.652Z,12.50
2018-05-14T00:46:51.163Z,12.60
2018-05-14T00:49:19.508Z,12.60
2018-05-14T00:51:47.274Z,12.60
2018-05-14T00:54:15.854Z,12.60
2018-05-14T00:56:44.078Z,12.70
2018-05-14T00:59:13.522Z,12.80
2018-05-14T01:01:40.996Z,12.70
2018-05-14T01:04:08.483Z,12.80
2018-05-14T01:06:36.799Z,12.80
2018-05-14T01:09:04.224Z,12.80
2018-05-14T01:11:32.579Z,12.80
2018-05-14T01:14:00.300Z,12.80
2018-05-14T01:16:28.071Z,12.80
2018-05-14T01:18:55.927Z,12.70
2018-05-14T01:21:23.692Z,12.70
2018-05-14T01:23:51.163Z,12.70
2018-05-14T01:26:18.636Z,12.70
2018-05-14T01:28:46.746Z,12.70
2018-05-14T01:31:14.240Z,12.80
2018-05-14T01:33:41.732Z,12.80
2018-05-14T01:36:09.213Z,12.80
2018-05-14T01:38:37.732Z,12.80
2018-05-14T01:41:05.435Z,12.80
2018-05-14T01:43:34.415Z,12.80
2018-05-14T01:46:01.916Z,12.80
2018-05-14T01:48:30.159Z,12.80
2018-05-14T01:50:59.190Z,12.80
2018-05-14T01:53:27.416Z,12.80
2018-05-14T01:55:54.891Z,12.80
2018-05-14T01:58:22.460Z,12.90
2018-05-14T02:00:50.706Z,12.90
2018-05-14T02:03:18.205Z,12.90
2018-05-14T02:05:46.452Z,12.90
2018-05-14T02:08:13.931Z,12.80
2018-05-14T02:10:42.187Z,12.80
2018-05-14T02:13:10.288Z,12.80
2018-05-14T02:15:38.079Z,12.70
2018-05-14T02:18:05.596Z,12.60
2018-05-14T02:20:34.121Z,12.70
2018-05-14T02:23:01.624Z,12.70
2018-05-14T02:25:29.823Z,12.80
2018-05-14T02:27:58.335Z,12.90
2018-05-14T02:30:26.097Z,12.80
2018-05-14T02:32:53.616Z,12.90
2018-05-14T02:35:22.135Z,12.90
2018-05-14T02:37:49.900Z,12.90
2018-05-14T02:40:17.616Z,13.00
2018-05-14T02:42:45.160Z,13.00
2018-05-14T02:45:12.741Z,13.00
2018-05-14T02:47:41.000Z,13.10
2018-05-14T02:50:08.473Z,13.10
2018-05-14T02:52:36.996Z,13.10
2018-05-14T02:55:04.760Z,13.10
2018-05-14T02:57:32.241Z,13.10
2018-05-14T02:59:59.737Z,13.20
2018-05-14T03:02:28.260Z,13.20
2018-05-14T03:04:56.078Z,13.20
2018-05-14T03:07:24.632Z,13.20
2018-05-14T03:09:52.596Z,13.30
2018-05-14T03:12:21.628Z,13.30
2018-05-14T03:14:49.878Z,13.20
2018-05-14T03:17:17.383Z,13.20
2018-05-14T03:19:44.859Z,13.20
2018-05-14T03:22:12.619Z,13.20
2018-05-14T03:24:40.384Z,13.10
2018-05-14T03:27:07.870Z,13.00
2018-05-14T03:29:35.704Z,13.00
2018-05-14T03:32:03.187Z,13.10
2018-05-14T03:34:30.660Z,13.10
2018-05-14T03:36:58.157Z,13.10
2018-05-14T03:39:25.632Z,13.20
2018-05-14T03:41:53.152Z,13.10
2018-05-14T03:44:21.399Z,13.20
2018-05-14T03:46:48.883Z,13.10
2018-05-14T03:49:17.163Z,13.20
2018-05-14T03:51:45.432Z,13.20
2018-05-14T03:54:13.813Z,13.20
2018-05-14T03:56:42.064Z,13.20
2018-05-14T03:59:22.131Z,13.20
2018-05-14T04:15:18.652Z,13.10
2018-05-14T04:17:46.171Z,13.10
2018-05-14T04:20:13.869Z,13.10
2018-05-14T04:22:41.368Z,13.20
2018-05-14T04:25:08.849Z,13.20
2018-05-14T04:27:36.340Z,13.30
2018-05-14T04:30:04.039Z,13.40
2018-05-14T04:32:31.539Z,13.50
2018-05-14T04:34:59.016Z,13.60
2018-05-14T04:37:26.742Z,13.60
2018-05-14T04:39:54.260Z,13.60
2018-05-14T04:42:22.780Z,13.70
2018-05-14T04:44:50.438Z,13.70
2018-05-14T04:47:17.924Z,13.70
2018-05-14T04:49:45.401Z,13.70
2018-05-14T04:52:12.897Z,13.70
2018-05-14T04:54:40.676Z,13.70
2018-05-14T04:57:08.168Z,13.70
2018-05-14T04:59:35.896Z,13.70
2018-05-14T05:02:03.390Z,13.60
2018-05-14T05:04:30.969Z,13.60
2018-05-14T05:06:59.224Z,13.60
2018-05-14T05:09:26.716Z,13.60
2018-05-14T05:11:54.955Z,13.50
2018-05-14T05:14:22.452Z,13.50
2018-05-14T05:16:50.960Z,13.40
2018-05-14T05:19:18.724Z,13.40
2018-05-14T05:21:46.244Z,13.40
2018-05-14T05:24:14.489Z,13.40
2018-05-14T05:26:43.039Z,13.40
2018-05-14T05:29:10.519Z,13.40
2018-05-14T05:31:38.075Z,13.40
2018-05-14T05:34:05.552Z,13.40
2018-05-14T05:36:33.811Z,13.40
2018-05-14T05:39:01.287Z,13.40
2018-05-14T05:41:29.760Z,13.40
2018-05-14T05:43:57.248Z,13.40
2018-05-14T05:46:25.763Z,13.30
2018-05-14T05:48:53.252Z,13.30
2018-05-14T05:51:21.556Z,13.40
2018-05-14T05:53:49.816Z,13.50
2018-05-14T05:56:17.296Z,13.50
2018-05-14T05:58:45.548Z,13.40
2018-05-14T06:01:13.138Z,13.40
2018-05-14T06:03:40.539Z,13.40
2018-05-14T06:06:08.036Z,13.50
2018-05-14T06:08:36.276Z,13.50
2018-05-14T06:11:04.120Z,13.40
2018-05-14T06:13:31.642Z,13.50
2018-05-14T06:15:59.893Z,13.50
2018-05-14T06:18:28.897Z,13.50
2018-05-14T06:20:57.141Z,13.60
2018-05-14T06:23:24.884Z,13.50
2018-05-14T06:25:52.404Z,13.60
2018-05-14T06:28:20.664Z,13.70
2018-05-14T06:30:48.239Z,13.70
2018-05-14T06:33:16.513Z,13.70
2018-05-14T06:35:44.051Z,13.70
2018-05-14T06:38:11.777Z,13.70
2018-05-14T06:40:39.264Z,13.80
2018-05-14T06:43:08.280Z,13.90
2018-05-14T06:45:36.540Z,14.00
2018-05-14T06:48:04.024Z,14.00
2018-05-14T06:50:32.292Z,14.00
2018-05-14T06:53:00.819Z,14.00
2018-05-14T06:55:28.304Z,14.00
2018-05-14T06:57:56.861Z,13.90
2018-05-14T07:00:24.366Z,13.90
2018-05-14T07:02:52.896Z,13.80
2018-05-14T07:05:20.407Z,13.80
2018-05-14T07:07:48.655Z,13.80
2018-05-14T07:10:16.396Z,13.80
2018-05-14T07:12:43.872Z,13.90
2018-05-14T07:15:11.576Z,14.00
2018-05-14T07:17:38.908Z,14.10
2018-05-14T07:20:07.144Z,14.10
2018-05-14T07:22:34.616Z,14.10
2018-05-14T07:25:02.112Z,14.20
2018-05-14T07:27:29.672Z,14.20
2018-05-14T07:29:57.915Z,14.20
2018-05-14T07:32:25.399Z,14.20
2018-05-14T07:34:53.639Z,14.20
2018-05-14T07:37:21.131Z,14.10
2018-05-14T07:39:49.376Z,14.10
2018-05-14T07:42:16.868Z,14.10
2018-05-14T07:44:45.392Z,14.20
2018-05-14T07:47:12.879Z,14.20
2018-05-14T07:49:40.367Z,14.20
2018-05-14T07:52:07.961Z,14.30
2018-05-14T07:54:35.483Z,14.30
2018-05-14T07:57:03.739Z,14.40
2018-05-14T07:59:31.464Z,14.40
2018-05-14T08:01:58.971Z,14.40
2018-05-14T08:04:27.255Z,14.50
2018-05-14T08:06:55.519Z,14.60
2018-05-14T08:09:23.238Z,14.60
2018-05-14T08:11:50.850Z,14.70
2018-05-14T08:14:19.016Z,14.80
2018-05-14T08:16:46.491Z,14.70
2018-05-14T08:19:14.751Z,14.90
2018-05-14T08:21:42.254Z,14.90
2018-05-14T08:24:09.743Z,14.90
2018-05-14T08:26:37.224Z,14.90
2018-05-14T08:29:04.704Z,14.80
2018-05-14T08:31:32.199Z,14.80
2018-05-14T08:33:59.700Z,14.90
2018-05-14T08:36:27.192Z,14.90
2018-05-14T08:38:54.672Z,14.90
2018-05-14T08:41:22.170Z,15.00
2018-05-14T08:43:50.703Z,14.90
2018-05-14T08:46:18.215Z,14.90
2018-05-14T08:48:46.472Z,15.10
2018-05-14T08:51:13.951Z,15.00
2018-05-14T08:53:42.215Z,15.10
2018-05-14T08:56:09.788Z,15.00
2018-05-14T08:58:38.032Z,15.10
2018-05-14T09:01:05.532Z,15.10
2018-05-14T09:03:33.009Z,15.00
2018-05-14T09:06:01.600Z,15.10
2018-05-14T09:08:29.368Z,15.10
2018-05-14T09:10:56.875Z,14.90
2018-05-14T09:13:25.404Z,14.80
2018-05-14T09:15:52.889Z,14.80
2018-05-14T09:18:20.380Z,14.80
2018-05-14T09:20:48.628Z,14.90
2018-05-14T09:23:16.212Z,14.90
2018-05-14T09:25:44.459Z,14.90
2018-05-14T09:28:12.763Z,15.00
2018-05-14T09:30:41.039Z,15.10
2018-05-14T09:33:09.315Z,15.10
2018-05-14T09:35:37.592Z,15.20
2018-05-14T09:38:05.840Z,15.20
2018-05-14T09:40:33.359Z,15.20
2018-05-14T09:43:00.882Z,15.20
2018-05-14T09:45:29.308Z,15.20
2018-05-14T09:47:56.787Z,15.20
2018-05-14T09:50:24.291Z,15.30
2018-05-14T09:52:51.785Z,15.40
2018-05-14T09:55:19.263Z,15.40
2018-05-14T09:57:48.268Z,15.50
2018-05-14T10:00:16.037Z,15.50
2018-05-14T10:02:43.375Z,15.50
2018-05-14T10:05:11.107Z,15.50
2018-05-14T10:07:38.611Z,15.60
2018-05-14T10:10:06.095Z,15.50
2018-05-14T10:12:33.639Z,15.60
2018-05-14T10:15:02.164Z,15.70
2018-05-14T10:17:29.932Z,15.70
2018-05-14T10:19:57.420Z,15.80
2018-05-14T10:22:24.903Z,15.80
2018-05-14T10:24:53.524Z,15.70
2018-05-14T10:27:21.004Z,15.70
2018-05-14T10:29:48.600Z,15.80
2018-05-14T10:32:16.875Z,15.70
2018-05-14T10:34:45.120Z,15.60
2018-05-14T10:37:12.632Z,15.60
2018-05-14T10:39:40.415Z,15.60
2018-05-14T10:42:08.631Z,15.60
2018-05-14T10:44:36.113Z,15.60
2018-05-14T10:47:04.732Z,15.70
2018-05-14T10:49:32.248Z,15.70
2018-05-14T10:52:00.627Z,15.70
2018-05-14T10:54:28.896Z,15.70
2018-05-14T10:56:57.144Z,15.80
2018-05-14T10:59:24.633Z,15.80
2018-05-14T11:01:52.907Z,15.90
2018-05-14T11:04:21.160Z,16.00
2018-05-14T11:06:48.655Z,16.00
2018-05-14T11:09:16.909Z,16.10
2018-05-14T11:11:44.411Z,16.10
2018-05-14T11:14:11.932Z,16.10
2018-05-14T11:16:40.608Z,16.00
2018-05-14T11:19:08.115Z,16.00
2018-05-14T11:21:35.598Z,16.00
2018-05-14T11:24:03.107Z,16.00
2018-05-14T11:26:30.585Z,16.00
2018-05-14T11:28:58.067Z,16.10
2018-05-14T11:31:25.563Z,16.10
2018-05-14T11:33:53.812Z,16.20
2018-05-14T11:36:21.416Z,16.20
2018-05-14T11:38:48.900Z,16.20
2018-05-14T11:41:16.664Z,16.20
2018-05-14T11:43:44.146Z,16.30
2018-05-14T11:46:12.260Z,16.40
2018-05-14T11:48:40.615Z,16.40
2018-05-14T11:51:08.116Z,16.40
2018-05-14T11:53:35.600Z,16.50
2018-05-14T11:56:03.348Z,16.50
2018-05-14T11:58:30.827Z,16.50
2018-05-14T12:00:58.323Z,16.60
2018-05-14T12:03:26.596Z,16.60
2018-05-14T12:05:54.855Z,16.50
2018-05-14T12:08:22.431Z,16.50
2018-05-14T12:10:50.689Z,16.60
2018-05-14T12:13:18.168Z,16.60
2018-05-14T12:15:46.436Z,17.00
2018-05-14T12:18:14.683Z,17.10
2018-05-14T12:20:42.180Z,17.10
2018-05-14T12:23:10.431Z,17.20
2018-05-14T12:25:38.039Z,17.20
2018-05-14T12:28:05.508Z,17.10
2018-05-14T12:30:33.024Z,17.10
2018-05-14T12:33:01.548Z,17.00
2018-05-14T12:35:29.312Z,16.90
2018-05-14T12:37:56.811Z,16.90
2018-05-14T12:40:24.387Z,16.90
2018-05-14T12:42:52.660Z,16.90
2018-05-14T12:45:20.908Z,16.90
2018-05-14T12:47:48.391Z,16.90
2018-05-14T12:50:16.656Z,16.80
2018-05-14T12:52:44.232Z,16.80
2018-05-14T12:55:12.754Z,16.80
2018-05-14T12:57:40.235Z,16.80
2018-05-14T13:00:07.742Z,16.80
2018-05-14T13:02:35.233Z,16.80
2018-05-14T13:05:02.720Z,16.60
2018-05-14T13:07:30.216Z,16.50
2018-05-14T13:09:57.700Z,16.40
2018-05-14T13:12:25.199Z,16.40
2018-05-14T13:14:52.679Z,16.30
2018-05-14T13:17:20.928Z,16.10
2018-05-14T13:19:48.428Z,16.10
2018-05-14T13:22:16.208Z,16.10
2018-05-14T13:24:43.748Z,16.10
2018-05-14T13:27:11.287Z,16.10
2018-05-14T13:29:39.811Z,16.10
2018-05-14T13:32:07.313Z,16.00
2018-05-14T13:34:35.029Z,16.00
2018-05-14T13:37:02.528Z,16.00
2018-05-14T13:39:30.013Z,16.00
2018-05-14T13:41:57.513Z,16.00
2018-05-14T13:44:25.059Z,16.00
2018-05-14T13:46:53.284Z,15.90
2018-05-14T13:49:21.568Z,15.90
2018-05-14T13:51:49.824Z,15.90
2018-05-14T13:54:17.328Z,15.90
2018-05-14T13:56:44.864Z,15.90
2018-05-14T13:59:13.131Z,16.00
2018-05-14T14:01:41.416Z,16.10
2018-05-14T14:04:09.667Z,16.10
2018-05-14T14:06:37.165Z,16.10
2018-05-14T14:09:04.653Z,16.10
2018-05-14T14:11:32.257Z,16.20
2018-05-14T14:14:00.424Z,16.50
2018-05-14T14:16:28.348Z,16.40
2018-05-14T14:18:55.837Z,16.50
2018-05-14T14:21:23.319Z,16.60
2018-05-14T14:23:51.728Z,16.60
2018-05-14T14:26:19.872Z,16.70
2018-05-14T14:28:48.135Z,16.80
2018-05-14T14:31:15.619Z,16.70
2018-05-14T14:33:43.125Z,16.80
2018-05-14T14:36:10.649Z,16.90
2018-05-14T14:38:38.896Z,16.80
2018-05-14T14:41:07.160Z,16.80
2018-05-14T14:43:35.446Z,16.90
2018-05-14T14:46:03.728Z,16.90
2018-05-14T14:48:31.976Z,16.90
2018-05-14T14:50:59.479Z,16.90
2018-05-14T14:53:27.049Z,17.00
2018-05-14T14:55:54.520Z,17.10
2018-05-14T14:58:22.099Z,17.10
2018-05-14T15:00:50.863Z,17.00
2018-05-14T15:03:18.476Z,17.00
2018-05-14T15:05:46.724Z,17.00
2018-05-14T15:08:14.233Z,17.00
2018-05-14T15:10:42.021Z,16.90
2018-05-14T15:13:09.536Z,16.90
2018-05-14T15:15:38.059Z,16.90
2018-05-14T15:18:06.334Z,16.80
2018-05-14T15:20:33.833Z,16.80
2018-05-14T15:23:01.409Z,16.80
2018-05-14T15:25:29.680Z,16.70
2018-05-14T15:27:58.211Z,16.70
2018-05-14T15:30:25.716Z,16.70
2018-05-14T15:32:53.510Z,16.70
2018-05-14T15:35:21.297Z,16.70
2018-05-14T15:37:49.059Z,16.70
2018-05-14T15:40:16.558Z,16.60
2018-05-14T15:42:44.831Z,16.60
2018-05-14T15:45:12.316Z,16.50
2018-05-14T15:47:40.584Z,16.40
2018-05-14T15:50:08.866Z,16.20
2018-05-14T15:52:36.428Z,16.20
2018-05-14T15:55:03.931Z,16.10
2018-05-14T15:57:31.539Z,16.00
2018-05-14T15:59:59.816Z,15.90
2018-05-14T16:02:28.064Z,15.80
2018-05-14T16:04:56.445Z,15.90
2018-05-14T16:07:23.934Z,15.80
2018-05-14T16:09:52.208Z,15.80
2018-05-14T16:12:20.722Z,15.70
2018-05-14T16:14:48.896Z,15.70
2018-05-14T16:17:16.400Z,15.70
2018-05-14T16:19:44.652Z,15.70
2018-05-14T16:22:12.150Z,15.70
2018-05-14T16:24:40.669Z,15.70
2018-05-14T16:27:08.168Z,15.70
2018-05-14T16:29:35.652Z,15.70
2018-05-14T16:32:03.155Z,15.60
2018-05-14T16:34:30.640Z,15.60
2018-05-14T16:36:58.204Z,15.70
2018-05-14T16:39:25.791Z,15.70
2018-05-14T16:41:53.337Z,15.80
2018-05-14T16:44:21.036Z,15.80
2018-05-14T16:46:48.551Z,15.90
2018-05-14T16:49:16.935Z,15.90
2018-05-14T16:51:45.188Z,15.90
2018-05-14T16:54:13.016Z,15.90
2018-05-14T16:56:40.539Z,15.90
2018-05-14T16:59:08.807Z,15.90
2018-05-14T17:01:37.260Z,15.90
2018-05-14T17:04:04.835Z,15.90
2018-05-14T17:06:32.256Z,16.00
2018-05-14T17:08:59.743Z,16.00
2018-05-14T17:11:27.316Z,16.10
2018-05-14T17:13:55.631Z,16.10
2018-05-14T17:16:23.071Z,16.10
2018-05-14T17:18:50.856Z,16.10
2018-05-14T17:21:18.375Z,16.10
2018-05-14T17:23:46.684Z,16.10
2018-05-14T17:26:14.172Z,16.10
2018-05-14T17:28:41.672Z,16.10
2018-05-14T17:31:09.988Z,16.20
2018-05-14T17:33:37.492Z,16.20
2018-05-14T17:36:05.775Z,16.20
2018-05-14T17:38:34.299Z,16.30
2018-05-14T17:41:01.803Z,16.20
2018-05-14T17:43:29.411Z,16.20
2018-05-14T17:45:56.932Z,16.20
2018-05-14T17:48:25.456Z,16.20
2018-05-14T17:50:52.962Z,16.10
2018-05-14T17:53:20.452Z,16.10
2018-05-14T17:55:47.975Z,16.10
2018-05-14T17:58:15.520Z,16.00
2018-05-14T18:00:43.012Z,16.00
2018-05-14T18:03:11.275Z,16.10
2018-05-14T18:05:39.579Z,16.00
2018-05-14T18:08:07.111Z,16.00
2018-05-14T18:10:35.423Z,16.00
2018-05-14T18:13:02.860Z,15.90
2018-05-14T18:15:31.184Z,16.00
2018-05-14T18:17:58.964Z,16.00
2018-05-14T18:20:26.308Z,16.00
2018-05-14T18:22:53.792Z,15.90
2018-05-14T18:25:26.864Z,15.70
2018-05-14T18:28:00.145Z,15.60
2018-05-14T18:30:28.431Z,15.70
2018-05-14T18:33:01.685Z,15.70
2018-05-14T18:35:35.054Z,15.70
2018-05-14T18:38:03.341Z,15.50
2018-05-14T18:40:30.954Z,15.50
2018-05-14T18:42:58.540Z,15.30
2018-05-14T18:45:26.789Z,15.10
2018-05-14T18:47:54.295Z,15.10
2018-05-14T18:50:21.869Z,15.10
2018-05-14T18:52:49.377Z,15.00
2018-05-14T18:55:16.863Z,15.10
2018-05-14T18:57:44.356Z,15.20
2018-05-14T19:00:11.868Z,15.20
2018-05-14T19:02:40.136Z,15.30
2018-05-14T19:05:08.404Z,15.30
2018-05-14T19:07:35.892Z,15.30
2018-05-14T19:10:03.397Z,15.30
2018-05-14T19:12:30.927Z,15.40
2018-05-14T19:15:04.185Z,15.40
2018-05-14T19:17:38.549Z,15.40
2018-05-14T19:20:06.056Z,15.40
2018-05-14T19:22:39.942Z,15.40
2018-05-14T19:25:07.531Z,15.40
2018-05-14T19:27:35.800Z,15.30
2018-05-14T19:30:04.075Z,15.30
2018-05-14T19:32:32.340Z,15.30
2018-05-14T19:35:05.688Z,15.30
2018-05-14T19:37:33.188Z,15.30
2018-05-14T19:40:06.540Z,15.30
2018-05-14T19:42:34.304Z,15.20
2018-05-14T19:45:01.820Z,15.20
2018-05-14T19:47:30.095Z,15.10
2018-05-14T19:49:58.344Z,15.20
2018-05-14T19:52:25.855Z,15.20
2018-05-14T19:54:53.349Z,15.20
2018-05-14T19:57:21.092Z,15.20
2018-05-14T19:59:48.615Z,15.30
2018-05-14T20:02:16.870Z,15.30
2018-05-14T20:04:45.148Z,15.30
2018-05-14T20:07:12.628Z,15.20
2018-05-14T20:09:40.174Z,15.30
2018-05-14T20:12:08.435Z,15.30
2018-05-14T20:14:36.848Z,15.30
2018-05-14T20:17:04.391Z,15.30
2018-05-14T20:19:32.912Z,15.30
2018-05-14T20:22:00.432Z,15.30
2018-05-14T20:24:28.684Z,15.30
2018-05-14T20:26:56.188Z,15.30
2018-05-14T20:29:23.721Z,15.40
2018-05-14T20:31:52.100Z,15.40
2018-05-14T20:34:20.620Z,15.40
2018-05-14T20:36:48.100Z,15.40
2018-05-14T20:39:15.599Z,15.40
2018-05-14T20:41:43.850Z,15.40
2018-05-14T20:44:11.352Z,15.40
2018-05-14T20:46:38.883Z,15.40
2018-05-14T20:49:07.164Z,15.00
2018-05-14T20:51:35.684Z,15.00
2018-05-14T20:54:03.447Z,15.00
2018-05-14T20:56:30.951Z,15.00
2018-05-14T20:58:58.520Z,14.90
2018-05-14T21:01:26.901Z,14.90
2018-05-14T21:03:55.164Z,14.80
2018-05-14T21:06:22.675Z,14.80
2018-05-14T21:08:50.157Z,14.80
2018-05-14T21:11:17.634Z,14.70
2018-05-14T21:13:45.455Z,14.70
2018-05-14T21:16:13.220Z,14.70
2018-05-14T21:18:40.740Z,14.80
2018-05-14T21:21:09.256Z,14.90
2018-05-14T21:23:36.991Z,14.90
2018-05-14T21:26:04.483Z,15.00
2018-05-14T21:28:31.965Z,15.00
2018-05-14T21:30:59.463Z,15.00
2018-05-14T21:33:27.977Z,14.90
2018-05-14T21:35:55.472Z,14.90
2018-05-14T21:38:23.052Z,14.90
2018-05-14T21:40:51.319Z,14.90
2018-05-14T21:43:19.848Z,14.90
2018-05-14T21:45:47.612Z,14.90
2018-05-14T21:48:15.108Z,14.90
2018-05-14T21:50:42.592Z,14.90
2018-05-14T21:53:11.080Z,15.00
2018-05-14T21:55:38.628Z,14.90
2018-05-14T21:58:06.895Z,14.90
2018-05-14T22:00:35.295Z,14.80
2018-05-14T22:03:02.795Z,14.80
2018-05-14T22:05:30.280Z,14.80
2018-05-14T22:07:57.780Z,14.90
2018-05-14T22:10:25.420Z,14.90
2018-05-14T22:12:52.971Z,14.90
2018-05-14T22:15:21.361Z,14.90
2018-05-14T22:17:48.864Z,14.90
2018-05-14T22:20:16.360Z,14.90
2018-05-14T22:22:44.992Z,14.80
2018-05-14T22:25:12.757Z,14.80
2018-05-14T22:27:40.240Z,14.90
2018-05-14T22:30:08.455Z,14.90
2018-05-14T22:32:36.831Z,14.90
2018-05-14T22:35:05.092Z,14.90
2018-05-14T22:37:32.629Z,14.90
2018-05-14T22:40:00.094Z,14.80
2018-05-14T22:42:27.579Z,14.80
2018-05-14T22:44:55.840Z,14.80
2018-05-14T22:47:23.408Z,14.70
2018-05-14T22:49:51.667Z,14.80
2018-05-14T22:52:19.168Z,14.70
2018-05-14T22:54:46.667Z,14.80
2018-05-14T22:57:15.013Z,14.80
2018-05-14T22:59:42.685Z,14.70
2018-05-14T23:02:10.171Z,14.70
2018-05-14T23:04:37.755Z,14.80
2018-05-14T23:07:06.020Z,14.80
2018-05-14T23:09:33.504Z,14.80
2018-05-14T23:12:01.004Z,14.80
2018-05-14T23:14:28.488Z,14.80
2018-05-14T23:16:56.751Z,14.70
2018-05-14T23:19:25.351Z,14.70
2018-05-14T23:21:52.795Z,14.70
2018-05-14T23:24:20.316Z,14.70
2018-05-14T23:26:47.799Z,14.70
2018-05-14T23:29:15.300Z,14.70
2018-05-14T23:31:43.671Z,14.60
2018-05-14T23:34:12.192Z,14.60
2018-05-14T23:36:39.691Z,14.50
2018-05-14T23:39:07.172Z,14.50
2018-05-14T23:41:35.432Z,14.40
2018-05-14T23:44:02.924Z,14.40
2018-05-14T23:46:30.428Z,14.40
2018-05-14T23:48:57.915Z,14.30
2018-05-14T23:51:26.435Z,14.20
2018-05-14T23:53:53.960Z,14.30
2018-05-14T23:56:22.204Z,14.10
2018-05-14T23:58:49.709Z,14.10
